ADDS METAR Data INFO
IDs: Format: Raw Decoded Include TAF

Data at: 0754 UTC 17 Oct 2017

KICL 170735Z AUTO 19007KT 10SM CLR 10/06 A3018 RMK AO2 PWINO
KICL 170715Z AUTO 19006KT 10SM CLR 09/06 A3018 RMK AO2 PWINO
KICL 170655Z AUTO 18005KT 10SM CLR 09/05 A3019 RMK AO2 PWINO
KICL 170635Z AUTO 19006KT 10SM CLR 09/05 A3018 RMK AO2 PWINO
KICL 170615Z AUTO 20006KT 10SM CLR 10/06 A3018 RMK AO2 PWINO
KICL 170555Z AUTO 19007KT 10SM CLR 10/06 A3018 RMK AO2 PWINO
KICL 170535Z AUTO 19007KT 10SM CLR 10/06 A3018 RMK AO2 PWINO
KICL 170515Z AUTO 20007KT 10SM CLR 10/06 A3019 RMK AO2 PWINO
KICL 170455Z AUTO 19007KT 10SM CLR 11/06 A3019 RMK AO2 PWINO
KICL 170435Z AUTO 19007KT 10SM CLR 10/06 A3019 RMK AO2 PWINO
KICL 170415Z AUTO 19006KT 10SM CLR 10/06 A3020 RMK AO2 PWINO
KICL 170355Z AUTO 20006KT 10SM CLR 10/05 A3019 RMK AO2 PWINO
KICL 170335Z AUTO 21006KT 10SM CLR 11/05 A3019 RMK AO2 PWINO
KICL 170315Z AUTO 20007KT 10SM CLR 11/05 A3019 RMK AO2 PWINO
KICL 170255Z AUTO 20005KT 10SM CLR 11/06 A3019 RMK AO2 PWINO
KICL 170235Z AUTO 19006KT 10SM CLR 11/06 A3019 RMK AO2 PWINO
KICL 170215Z AUTO 19006KT 10SM CLR 11/05 A3019 RMK AO2 PWINO
KICL 170155Z AUTO 20007KT 10SM CLR 11/05 A3019 RMK AO2 PWINO
KICL 170135Z AUTO 19007KT 10SM 12/06 A3018 RMK AO2 PWINO
KICL 170115Z AUTO 18006KT 10SM CLR 11/06 A3019 RMK AO2 PWINO
KICL 170055Z AUTO 18005KT 10SM 12/05 A3019 RMK AO2 PWINO
KICL 170035Z AUTO 19004KT 10SM 13/04 A3019 RMK AO2 PWINO
KICL 170015Z AUTO 19004KT 10SM CLR 15/04 A3018 RMK AO2 PWINO
KICL 162355Z AUTO 19004KT 10SM CLR 16/04 A3018 RMK AO2 PWINO
KICL 162335Z AUTO 20006KT 10SM CLR 17/04 A3018 RMK AO2 PWINO
KICL 162315Z AUTO 21008KT 10SM CLR 19/04 A3018 RMK AO2 PWINO
KICL 162255Z AUTO 21011KT 10SM CLR 20/04 A3018 RMK AO2 PWINO
KICL 162235Z AUTO 21012KT 10SM CLR 21/04 A3019 RMK AO2 PWINO
KICL 162215Z AUTO 22010G17KT 10SM CLR 21/04 A3019 RMK AO2 PWINO
KICL 162155Z AUTO 21012KT 10SM CLR 22/03 A3020 RMK AO2 PWINO
KICL 162135Z AUTO 22014KT 10SM CLR 22/03 A3020 RMK AO2 PWINO
KICL 162115Z AUTO 22012G20KT 10SM CLR 22/03 A3021 RMK AO2 PWINO
KICL 162055Z AUTO 23015KT 10SM CLR 22/03 A3021 RMK AO2 PWINO
KICL 162035Z AUTO 23013G19KT 10SM CLR 22/03 A3021 RMK AO2 PWINO
KICL 162015Z AUTO 23011G17KT 10SM CLR 22/03 A3022 RMK AO2 PWINO
KICL 161955Z AUTO 23011G18KT 10SM CLR 22/03 A3024 RMK AO2 PWINO
KICL 161935Z AUTO 21011KT 10SM CLR 22/04 A3024 RMK AO2 PWINO
KICL 161915Z AUTO 21013KT 10SM CLR 22/04 A3026 RMK AO2 PWINO
KICL 161855Z AUTO 22013G19KT 10SM CLR 21/03 A3027 RMK AO2 PWINO
KICL 161835Z AUTO 24012G18KT 10SM CLR 21/03 A3029 RMK AO2 PWINO
KICL 161815Z AUTO 21012KT 10SM CLR 20/03 A3030 RMK AO2 PWINO
KICL 161755Z AUTO 20013KT 10SM CLR 20/02 A3032 RMK AO2 PWINO
KICL 161735Z AUTO 19013KT 10SM CLR 19/03 A3033 RMK AO2 PWINO
KICL 161715Z AUTO 19013KT 10SM CLR 19/04 A3034 RMK AO2 PWINO
KICL 161655Z AUTO 20010KT 170V230 10SM CLR 18/03 A3035 RMK AO2 PWINO
KICL 161635Z AUTO 20013KT 10SM CLR 17/02 A3036 RMK AO2 PWINO
KICL 161615Z AUTO 19010KT 10SM CLR 17/05 A3037 RMK AO2 PWINO
KICL 161555Z AUTO 20008KT 10SM CLR 15/06 A3037 RMK AO2 PWINO
KICL 161535Z AUTO 18005KT 10SM CLR 13/07 A3037 RMK AO2 PWINO
KICL 161515Z AUTO 21003KT 10SM CLR 11/07 A3038 RMK AO2 PWINO
KICL 161455Z AUTO 18004KT 10SM CLR 09/07 A3038 RMK AO2 PWINO
KICL 161435Z AUTO 18004KT 10SM CLR 08/06 A3039 RMK AO2 PWINO
KICL 161415Z AUTO 20003KT 10SM CLR 06/06 A3039 RMK AO2 PWINO
KICL 161355Z AUTO 20003KT 10SM CLR 05/05 A3039 RMK AO2 PWINO
KICL 161335Z AUTO 21003KT 10SM CLR 03/03 A3039 RMK AO2 PWINO
KICL 161315Z AUTO 00000KT 10SM CLR 02/02 A3038 RMK AO2 PWINO
KICL 161255Z AUTO 00000KT 10SM CLR 02/02 A3038 RMK AO2 PWINO
KICL 161235Z AUTO 24003KT 10SM CLR 01/01 A3038 RMK AO2 PWINO
KICL 161215Z AUTO 00000KT 10SM CLR 01/01 A3038 RMK AO2 PWINO
KICL 161155Z AUTO 21004KT 10SM CLR 01/01 A3038 RMK AO2 PWINO
KICL 161135Z AUTO 00000KT 10SM CLR 01/01 A3038 RMK AO2 PWINO
KICL 161115Z AUTO 00000KT 9SM CLR 01/01 A3037 RMK AO2 PWINO
KICL 161055Z AUTO 00000KT 9SM FEW019 FEW027 01/01 A3037 RMK AO2 PWINO
KICL 161035Z AUTO 00000KT 9SM FEW019 FEW028 01/01 A3037 RMK AO2 PWINO
KICL 161015Z AUTO 00000KT 10SM CLR 02/02 A3037 RMK AO2 PWINO
KICL 160955Z AUTO 21003KT 9SM 01/01 A3037 RMK AO2 PWINO
KICL 160935Z AUTO 00000KT 10SM CLR 02/02 A3037 RMK AO2 PWINO
KICL 160915Z AUTO 00000KT 9SM 02/02 A3036 RMK AO2 PWINO
KICL 160855Z AUTO 00000KT 10SM 02/02 A3036 RMK AO2 PWINO
KICL 160835Z AUTO 00000KT 10SM 02/02 A3037 RMK AO2 PWINO
KICL 160815Z AUTO 00000KT 10SM 02/02 A3037 RMK AO2 PWINO
KICL 160755Z AUTO 22003KT 9SM 02/02 A3037 RMK AO2 PWINO
KICL 160735Z AUTO 00000KT 10SM 03/03 A3037 RMK AO2 PWINO
KICL 160715Z AUTO 00000KT 10SM CLR 03/03 A3037 RMK AO2 PWINO
KICL 160655Z AUTO 00000KT 8SM CLR 03/03 A3036 RMK AO2 PWINO
KICL 160635Z AUTO 00000KT 4SM BR CLR 04/04 A3036 RMK AO2 PWINO
KICL 160615Z AUTO 00000KT 2SM BR CLR 05/05 A3036 RMK AO2 PWINO
KICL 160555Z AUTO 00000KT 4SM BR CLR 04/04 A3036 RMK AO2 PWINO
KICL 160535Z AUTO 00000KT 10SM CLR 04/04 A3036 RMK AO2 PWINO
KICL 160515Z AUTO 00000KT 10SM CLR 04/04 A3036 RMK AO2 PWINO
KICL 160455Z AUTO 00000KT 10SM CLR 04/04 A3036 RMK AO2 PWINO
KICL 160435Z AUTO 00000KT 10SM CLR 04/04 A3036 RMK AO2 PWINO
KICL 160415Z AUTO 00000KT 10SM CLR 04/04 A3036 RMK AO2 PWINO
KICL 160355Z AUTO 00000KT 10SM CLR 04/04 A3036 RMK AO2 PWINO
KICL 160335Z AUTO 00000KT 10SM CLR 04/04 A3036 RMK AO2 PWINO
KICL 160315Z AUTO 00000KT 10SM CLR 04/04 A3036 RMK AO2 PWINO
KICL 160255Z AUTO 00000KT 10SM CLR 04/04 A3035 RMK AO2 PWINO
KICL 160235Z AUTO 00000KT 10SM CLR 05/05 A3035 RMK AO2 PWINO
KICL 160215Z AUTO 00000KT 10SM CLR 05/05 A3035 RMK AO2 PWINO
KICL 160155Z AUTO 00000KT 10SM CLR 05/05 A3035 RMK AO2 PWINO
KICL 160135Z AUTO 00000KT 10SM 06/04 A3035 RMK AO2 PWINO
KICL 160115Z AUTO 23003KT 10SM CLR 06/04 A3035 RMK AO2 PWINO
KICL 160055Z AUTO 00000KT 10SM CLR 07/03 A3035 RMK AO2 PWINO
KICL 160035Z AUTO 00000KT 10SM CLR 07/04 A3034 RMK AO2 PWINO
KICL 160015Z AUTO 00000KT 10SM CLR 08/04 A3034 RMK AO2 PWINO
KICL 152355Z AUTO 00000KT 10SM CLR 10/03 A3034 RMK AO2 PWINO
KICL 152335Z AUTO 30004KT 10SM CLR 12/01 A3034 RMK AO2 PWINO
KICL 152315Z AUTO 30006KT 10SM CLR 14/01 A3034 RMK AO2 PWINO
KICL 152255Z AUTO 30007KT 10SM CLR 14/00 A3034 RMK AO2 PWINO
KICL 152235Z AUTO 30010KT 10SM CLR 15/01 A3034 RMK AO2 PWINO
KICL 152215Z AUTO 30006G11KT 10SM CLR 15/00 A3034 RMK AO2 PWINO
KICL 152155Z AUTO 31012KT 10SM CLR 15/M00 A3034 RMK AO2 PWINO
KICL 152135Z AUTO 31007G13KT 10SM CLR 15/00 A3034 RMK AO2 PWINO
KICL 152115Z AUTO 31006G14KT 10SM CLR 15/01 A3034 RMK AO2 PWINO
KICL 152055Z AUTO 32011KT 10SM CLR 15/00 A3034 RMK AO2 PWINO
KICL 152035Z AUTO 33009G16KT 290V350 10SM CLR 15/01 A3034 RMK AO2 PWINO
KICL 152015Z AUTO 30012KT 10SM CLR 15/02 A3034 RMK AO2 PWINO
KICL 151955Z AUTO 31013KT 10SM CLR 15/02 A3034 RMK AO2 PWINO